sensor_id;sensor_type;location;lat;lon;timestamp;P1;durP1;ratioP1;P2;durP2;ratioP2
16792;SDS011;8513;42.662;23.350;2024-02-14T00:02:20;6.67;;;5.97;;
16792;SDS011;8513;42.662;23.350;2024-02-14T00:04:46;6.40;;;5.80;;
16792;SDS011;8513;42.662;23.350;2024-02-14T00:07:11;5.73;;;5.23;;
16792;SDS011;8513;42.662;23.350;2024-02-14T00:09:36;6.30;;;5.70;;
16792;SDS011;8513;42.662;23.350;2024-02-14T00:12:02;6.50;;;5.90;;
16792;SDS011;8513;42.662;23.350;2024-02-14T00:14:27;6.77;;;6.17;;
16792;SDS011;8513;42.662;23.350;2024-02-14T00:16:53;6.47;;;5.87;;
16792;SDS011;8513;42.662;23.350;2024-02-14T00:19:18;6.10;;;5.60;;
16792;SDS011;8513;42.662;23.350;2024-02-14T00:21:44;6.50;;;5.90;;
16792;SDS011;8513;42.662;23.350;2024-02-14T00:24:09;6.37;;;5.80;;
16792;SDS011;8513;42.662;23.350;2024-02-14T00:26:36;5.87;;;5.30;;
16792;SDS011;8513;42.662;23.350;2024-02-14T00:29:02;6.37;;;5.77;;
16792;SDS011;8513;42.662;23.350;2024-02-14T00:31:28;7.20;;;6.60;;
16792;SDS011;8513;42.662;23.350;2024-02-14T00:33:53;7.13;;;6.33;;
16792;SDS011;8513;42.662;23.350;2024-02-14T00:36:18;6.77;;;6.17;;
16792;SDS011;8513;42.662;23.350;2024-02-14T00:38:44;7.07;;;6.47;;
16792;SDS011;8513;42.662;23.350;2024-02-14T00:41:13;6.67;;;6.07;;
16792;SDS011;8513;42.662;23.350;2024-02-14T00:43:38;6.97;;;6.37;;
16792;SDS011;8513;42.662;23.350;2024-02-14T00:46:03;6.87;;;5.63;;
16792;SDS011;8513;42.662;23.350;2024-02-14T00:48:29;7.03;;;6.33;;
16792;SDS011;8513;42.662;23.350;2024-02-14T00:50:56;7.13;;;6.47;;
16792;SDS011;8513;42.662;23.350;2024-02-14T00:53:22;6.77;;;6.17;;
16792;SDS011;8513;42.662;23.350;2024-02-14T00:55:47;7.20;;;6.60;;
16792;SDS011;8513;42.662;23.350;2024-02-14T00:58:13;6.43;;;5.83;;
16792;SDS011;8513;42.662;23.350;2024-02-14T01:00:38;7.20;;;6.60;;
16792;SDS011;8513;42.662;23.350;2024-02-14T01:03:03;7.10;;;6.50;;
16792;SDS011;8513;42.662;23.350;2024-02-14T01:05:29;7.40;;;6.70;;
16792;SDS011;8513;42.662;23.350;2024-02-14T01:07:54;6.53;;;5.93;;
16792;SDS011;8513;42.662;23.350;2024-02-14T01:10:20;7.47;;;6.83;;
16792;SDS011;8513;42.662;23.350;2024-02-14T01:12:46;7.57;;;6.90;;
16792;SDS011;8513;42.662;23.350;2024-02-14T01:15:11;7.23;;;6.57;;
16792;SDS011;8513;42.662;23.350;2024-02-14T01:17:37;7.57;;;6.50;;
16792;SDS011;8513;42.662;23.350;2024-02-14T01:20:04;7.73;;;6.97;;
16792;SDS011;8513;42.662;23.350;2024-02-14T01:22:31;7.77;;;7.07;;
16792;SDS011;8513;42.662;23.350;2024-02-14T01:24:56;6.97;;;6.23;;
16792;SDS011;8513;42.662;23.350;2024-02-14T01:27:23;7.43;;;6.40;;
16792;SDS011;8513;42.662;23.350;2024-02-14T01:29:49;7.47;;;6.77;;
16792;SDS011;8513;42.662;23.350;2024-02-14T01:32:14;8.37;;;7.53;;
16792;SDS011;8513;42.662;23.350;2024-02-14T01:34:40;7.10;;;6.40;;
16792;SDS011;8513;42.662;23.350;2024-02-14T01:37:07;8.03;;;7.23;;
16792;SDS011;8513;42.662;23.350;2024-02-14T01:39:34;6.53;;;5.93;;
16792;SDS011;8513;42.662;23.350;2024-02-14T01:42:00;9.53;;;7.83;;
16792;SDS011;8513;42.662;23.350;2024-02-14T01:44:26;9.00;;;8.10;;
16792;SDS011;8513;42.662;23.350;2024-02-14T01:46:51;7.40;;;6.70;;
16792;SDS011;8513;42.662;23.350;2024-02-14T01:49:18;7.03;;;6.43;;
16792;SDS011;8513;42.662;23.350;2024-02-14T01:51:44;8.40;;;7.37;;
16792;SDS011;8513;42.662;23.350;2024-02-14T01:54:11;7.83;;;7.13;;
16792;SDS011;8513;42.662;23.350;2024-02-14T01:56:38;8.03;;;7.33;;
16792;SDS011;8513;42.662;23.350;2024-02-14T01:59:04;8.50;;;7.70;;
16792;SDS011;8513;42.662;23.350;2024-02-14T02:01:31;7.97;;;7.07;;
16792;SDS011;8513;42.662;23.350;2024-02-14T02:03:57;7.90;;;7.20;;
16792;SDS011;8513;42.662;23.350;2024-02-14T02:06:23;8.30;;;7.60;;
16792;SDS011;8513;42.662;23.350;2024-02-14T02:08:48;8.63;;;7.87;;
16792;SDS011;8513;42.662;23.350;2024-02-14T02:11:14;7.40;;;6.70;;
16792;SDS011;8513;42.662;23.350;2024-02-14T02:13:40;8.00;;;7.20;;
16792;SDS011;8513;42.662;23.350;2024-02-14T02:16:06;7.90;;;7.17;;
16792;SDS011;8513;42.662;23.350;2024-02-14T02:18:31;8.67;;;7.83;;
16792;SDS011;8513;42.662;23.350;2024-02-14T02:20:57;7.67;;;6.97;;
16792;SDS011;8513;42.662;23.350;2024-02-14T02:23:22;7.87;;;7.17;;
16792;SDS011;8513;42.662;23.350;2024-02-14T02:25:48;7.43;;;6.73;;
16792;SDS011;8513;42.662;23.350;2024-02-14T02:28:15;7.67;;;6.97;;
16792;SDS011;8513;42.662;23.350;2024-02-14T02:30:40;7.20;;;6.57;;
16792;SDS011;8513;42.662;23.350;2024-02-14T02:33:06;7.97;;;7.27;;
16792;SDS011;8513;42.662;23.350;2024-02-14T02:35:32;7.83;;;7.13;;
16792;SDS011;8513;42.662;23.350;2024-02-14T02:37:58;8.10;;;7.27;;
16792;SDS011;8513;42.662;23.350;2024-02-14T02:40:24;7.97;;;7.27;;
16792;SDS011;8513;42.662;23.350;2024-02-14T02:42:49;7.63;;;6.93;;
16792;SDS011;8513;42.662;23.350;2024-02-14T02:45:16;8.37;;;7.67;;
16792;SDS011;8513;42.662;23.350;2024-02-14T02:47:42;7.70;;;7.10;;
16792;SDS011;8513;42.662;23.350;2024-02-14T02:50:07;9.20;;;7.87;;
16792;SDS011;8513;42.662;23.350;2024-02-14T02:52:33;8.50;;;7.77;;
16792;SDS011;8513;42.662;23.350;2024-02-14T02:54:59;8.10;;;7.30;;
16792;SDS011;8513;42.662;23.350;2024-02-14T02:57:26;8.63;;;7.83;;
16792;SDS011;8513;42.662;23.350;2024-02-14T02:59:52;8.50;;;7.80;;
16792;SDS011;8513;42.662;23.350;2024-02-14T03:02:19;9.00;;;8.10;;
16792;SDS011;8513;42.662;23.350;2024-02-14T03:04:45;8.43;;;7.07;;
16792;SDS011;8513;42.662;23.350;2024-02-14T03:07:12;9.00;;;8.10;;
16792;SDS011;8513;42.662;23.350;2024-02-14T03:09:37;9.63;;;8.73;;
16792;SDS011;8513;42.662;23.350;2024-02-14T03:12:03;8.83;;;8.03;;
16792;SDS011;8513;42.662;23.350;2024-02-14T03:14:29;9.00;;;7.80;;
16792;SDS011;8513;42.662;23.350;2024-02-14T03:16:58;8.47;;;7.67;;
16792;SDS011;8513;42.662;23.350;2024-02-14T03:19:24;8.10;;;7.23;;
16792;SDS011;8513;42.662;23.350;2024-02-14T03:21:51;8.53;;;7.73;;
16792;SDS011;8513;42.662;23.350;2024-02-14T03:24:17;8.30;;;7.33;;
16792;SDS011;8513;42.662;23.350;2024-02-14T03:26:42;8.40;;;7.60;;
16792;SDS011;8513;42.662;23.350;2024-02-14T03:29:08;8.67;;;7.70;;
16792;SDS011;8513;42.662;23.350;2024-02-14T03:31:34;8.43;;;7.53;;
16792;SDS011;8513;42.662;23.350;2024-02-14T03:33:59;7.70;;;6.90;;
16792;SDS011;8513;42.662;23.350;2024-02-14T03:36:25;12.40;;;8.50;;
16792;SDS011;8513;42.662;23.350;2024-02-14T03:38:53;8.33;;;7.53;;
16792;SDS011;8513;42.662;23.350;2024-02-14T03:41:19;8.00;;;7.20;;
16792;SDS011;8513;42.662;23.350;2024-02-14T03:43:44;8.57;;;7.70;;
16792;SDS011;8513;42.662;23.350;2024-02-14T03:46:09;8.23;;;7.33;;
16792;SDS011;8513;42.662;23.350;2024-02-14T03:48:37;9.50;;;8.57;;
16792;SDS011;8513;42.662;23.350;2024-02-14T03:51:03;8.00;;;7.23;;
16792;SDS011;8513;42.662;23.350;2024-02-14T03:53:28;8.57;;;7.73;;
16792;SDS011;8513;42.662;23.350;2024-02-14T03:55:54;8.10;;;7.33;;
16792;SDS011;8513;42.662;23.350;2024-02-14T03:58:19;8.37;;;7.37;;
16792;SDS011;8513;42.662;23.350;2024-02-14T04:00:49;8.33;;;7.00;;
16792;SDS011;8513;42.662;23.350;2024-02-14T04:03:15;8.70;;;7.60;;
16792;SDS011;8513;42.662;23.350;2024-02-14T04:05:41;8.57;;;7.77;;
16792;SDS011;8513;42.662;23.350;2024-02-14T04:08:07;8.20;;;7.40;;
16792;SDS011;8513;42.662;23.350;2024-02-14T04:10:35;8.87;;;8.07;;
16792;SDS011;8513;42.662;23.350;2024-02-14T04:13:01;9.33;;;8.43;;
16792;SDS011;8513;42.662;23.350;2024-02-14T04:15:26;9.73;;;7.60;;
16792;SDS011;8513;42.662;23.350;2024-02-14T04:17:51;9.57;;;8.03;;
16792;SDS011;8513;42.662;23.350;2024-02-14T04:20:17;9.10;;;8.30;;
16792;SDS011;8513;42.662;23.350;2024-02-14T04:22:42;8.30;;;7.50;;
16792;SDS011;8513;42.662;23.350;2024-02-14T04:25:08;7.87;;;7.07;;
16792;SDS011;8513;42.662;23.350;2024-02-14T04:27:34;8.70;;;7.80;;
16792;SDS011;8513;42.662;23.350;2024-02-14T04:30:00;9.50;;;8.60;;
16792;SDS011;8513;42.662;23.350;2024-02-14T04:32:26;10.60;;;9.53;;
16792;SDS011;8513;42.662;23.350;2024-02-14T04:34:51;10.33;;;9.23;;
16792;SDS011;8513;42.662;23.350;2024-02-14T04:37:17;9.23;;;7.97;;
16792;SDS011;8513;42.662;23.350;2024-02-14T04:39:44;9.33;;;8.47;;
16792;SDS011;8513;42.662;23.350;2024-02-14T04:42:09;10.40;;;9.40;;
16792;SDS011;8513;42.662;23.350;2024-02-14T04:44:34;10.20;;;8.83;;
16792;SDS011;8513;42.662;23.350;2024-02-14T04:47:00;10.87;;;9.43;;
16792;SDS011;8513;42.662;23.350;2024-02-14T04:49:26;10.70;;;9.70;;
16792;SDS011;8513;42.662;23.350;2024-02-14T04:51:51;10.47;;;9.47;;
16792;SDS011;8513;42.662;23.350;2024-02-14T04:54:17;10.97;;;9.93;;
16792;SDS011;8513;42.662;23.350;2024-02-14T04:56:43;9.97;;;8.97;;
16792;SDS011;8513;42.662;23.350;2024-02-14T04:59:10;10.80;;;9.80;;
16792;SDS011;8513;42.662;23.350;2024-02-14T05:01:35;11.43;;;9.83;;
16792;SDS011;8513;42.662;23.350;2024-02-14T05:04:01;12.00;;;10.00;;
16792;SDS011;8513;42.662;23.350;2024-02-14T05:06:26;11.00;;;10.00;;
16792;SDS011;8513;42.662;23.350;2024-02-14T05:08:52;11.43;;;10.30;;
16792;SDS011;8513;42.662;23.350;2024-02-14T05:11:18;11.37;;;10.23;;
16792;SDS011;8513;42.662;23.350;2024-02-14T05:13:44;11.57;;;10.37;;
16792;SDS011;8513;42.662;23.350;2024-02-14T05:16:09;12.17;;;10.97;;
16792;SDS011;8513;42.662;23.350;2024-02-14T05:18:36;12.17;;;10.97;;
16792;SDS011;8513;42.662;23.350;2024-02-14T05:21:06;11.30;;;10.20;;
16792;SDS011;8513;42.662;23.350;2024-02-14T05:23:35;13.17;;;10.47;;
16792;SDS011;8513;42.662;23.350;2024-02-14T05:26:03;11.53;;;10.43;;
16792;SDS011;8513;42.662;23.350;2024-02-14T05:28:29;12.07;;;10.70;;
16792;SDS011;8513;42.662;23.350;2024-02-14T05:30:56;12.50;;;11.40;;
16792;SDS011;8513;42.662;23.350;2024-02-14T05:33:21;12.63;;;11.33;;
16792;SDS011;8513;42.662;23.350;2024-02-14T05:35:50;12.67;;;11.47;;
16792;SDS011;8513;42.662;23.350;2024-02-14T05:38:16;13.00;;;11.70;;
16792;SDS011;8513;42.662;23.350;2024-02-14T05:40:44;11.83;;;10.73;;
16792;SDS011;8513;42.662;23.350;2024-02-14T05:43:13;12.63;;;11.43;;
16792;SDS011;8513;42.662;23.350;2024-02-14T05:45:38;12.93;;;11.80;;
16792;SDS011;8513;42.662;23.350;2024-02-14T05:48:04;11.90;;;10.70;;
16792;SDS011;8513;42.662;23.350;2024-02-14T05:50:29;12.80;;;11.50;;
16792;SDS011;8513;42.662;23.350;2024-02-14T05:52:55;12.07;;;10.13;;
16792;SDS011;8513;42.662;23.350;2024-02-14T05:55:22;12.93;;;11.73;;
16792;SDS011;8513;42.662;23.350;2024-02-14T05:57:48;12.53;;;11.33;;
16792;SDS011;8513;42.662;23.350;2024-02-14T06:00:13;13.03;;;11.83;;
16792;SDS011;8513;42.662;23.350;2024-02-14T06:02:39;13.03;;;11.80;;
16792;SDS011;8513;42.662;23.350;2024-02-14T06:05:06;11.97;;;10.73;;
16792;SDS011;8513;42.662;23.350;2024-02-14T06:07:35;11.63;;;10.63;;
16792;SDS011;8513;42.662;23.350;2024-02-14T06:10:01;11.07;;;9.97;;
16792;SDS011;8513;42.662;23.350;2024-02-14T06:12:27;10.37;;;9.27;;
16792;SDS011;8513;42.662;23.350;2024-02-14T06:14:52;11.03;;;9.87;;
16792;SDS011;8513;42.662;23.350;2024-02-14T06:17:17;10.77;;;9.77;;
16792;SDS011;8513;42.662;23.350;2024-02-14T06:19:43;11.03;;;9.93;;
16792;SDS011;8513;42.662;23.350;2024-02-14T06:22:09;11.73;;;10.50;;
16792;SDS011;8513;42.662;23.350;2024-02-14T06:24:35;11.53;;;10.43;;
16792;SDS011;8513;42.662;23.350;2024-02-14T06:27:01;12.20;;;10.80;;
16792;SDS011;8513;42.662;23.350;2024-02-14T06:29:26;11.77;;;10.57;;
16792;SDS011;8513;42.662;23.350;2024-02-14T06:31:52;11.23;;;10.13;;
16792;SDS011;8513;42.662;23.350;2024-02-14T06:34:17;10.67;;;9.57;;
16792;SDS011;8513;42.662;23.350;2024-02-14T06:36:44;11.00;;;10.03;;
16792;SDS011;8513;42.662;23.350;2024-02-14T06:39:11;10.13;;;9.23;;
16792;SDS011;8513;42.662;23.350;2024-02-14T06:41:37;10.57;;;9.47;;
16792;SDS011;8513;42.662;23.350;2024-02-14T06:44:02;10.13;;;9.23;;
16792;SDS011;8513;42.662;23.350;2024-02-14T06:46:28;9.97;;;8.50;;
16792;SDS011;8513;42.662;23.350;2024-02-14T06:48:53;10.23;;;9.23;;
16792;SDS011;8513;42.662;23.350;2024-02-14T06:51:19;10.77;;;9.70;;
16792;SDS011;8513;42.662;23.350;2024-02-14T06:53:45;10.53;;;9.57;;
16792;SDS011;8513;42.662;23.350;2024-02-14T06:56:11;10.53;;;9.33;;
16792;SDS011;8513;42.662;23.350;2024-02-14T06:58:36;10.27;;;9.30;;
16792;SDS011;8513;42.662;23.350;2024-02-14T07:01:02;10.23;;;9.23;;
16792;SDS011;8513;42.662;23.350;2024-02-14T07:03:28;9.97;;;8.97;;
16792;SDS011;8513;42.662;23.350;2024-02-14T07:05:53;9.00;;;8.10;;
16792;SDS011;8513;42.662;23.350;2024-02-14T07:08:19;10.03;;;8.27;;
16792;SDS011;8513;42.662;23.350;2024-02-14T07:10:44;10.03;;;8.13;;
16792;SDS011;8513;42.662;23.350;2024-02-14T07:13:10;8.90;;;8.00;;
16792;SDS011;8513;42.662;23.350;2024-02-14T07:15:35;9.07;;;8.17;;
16792;SDS011;8513;42.662;23.350;2024-02-14T07:18:01;8.47;;;7.60;;
16792;SDS011;8513;42.662;23.350;2024-02-14T07:20:26;13.13;;;8.33;;
16792;SDS011;8513;42.662;23.350;2024-02-14T07:22:52;10.00;;;7.63;;
16792;SDS011;8513;42.662;23.350;2024-02-14T07:25:21;8.23;;;7.43;;
16792;SDS011;8513;42.662;23.350;2024-02-14T07:27:47;7.63;;;6.93;;
16792;SDS011;8513;42.662;23.350;2024-02-14T07:30:14;8.63;;;7.70;;
16792;SDS011;8513;42.662;23.350;2024-02-14T07:32:41;8.80;;;7.53;;
16792;SDS011;8513;42.662;23.350;2024-02-14T07:35:07;9.03;;;7.63;;
16792;SDS011;8513;42.662;23.350;2024-02-14T07:37:33;9.50;;;7.80;;
16792;SDS011;8513;42.662;23.350;2024-02-14T07:39:58;7.80;;;7.10;;
16792;SDS011;8513;42.662;23.350;2024-02-14T07:42:24;8.90;;;8.00;;
16792;SDS011;8513;42.662;23.350;2024-02-14T07:44:49;7.60;;;6.90;;
16792;SDS011;8513;42.662;23.350;2024-02-14T07:47:14;9.33;;;7.57;;
16792;SDS011;8513;42.662;23.350;2024-02-14T07:49:40;9.13;;;7.43;;
16792;SDS011;8513;42.662;23.350;2024-02-14T07:52:06;8.23;;;7.20;;
16792;SDS011;8513;42.662;23.350;2024-02-14T07:54:31;8.63;;;7.37;;
16792;SDS011;8513;42.662;23.350;2024-02-14T07:56:57;7.93;;;6.73;;
16792;SDS011;8513;42.662;23.350;2024-02-14T07:59:22;8.17;;;6.70;;
16792;SDS011;8513;42.662;23.350;2024-02-14T08:01:48;7.53;;;6.83;;
16792;SDS011;8513;42.662;23.350;2024-02-14T08:04:13;8.10;;;7.30;;
16792;SDS011;8513;42.662;23.350;2024-02-14T08:06:39;8.37;;;7.57;;
16792;SDS011;8513;42.662;23.350;2024-02-14T08:09:04;7.77;;;6.90;;
16792;SDS011;8513;42.662;23.350;2024-02-14T08:11:34;9.53;;;7.53;;
16792;SDS011;8513;42.662;23.350;2024-02-14T08:14:00;9.70;;;7.83;;
16792;SDS011;8513;42.662;23.350;2024-02-14T08:16:26;8.20;;;7.23;;
16792;SDS011;8513;42.662;23.350;2024-02-14T08:18:51;8.40;;;7.50;;
16792;SDS011;8513;42.662;23.350;2024-02-14T08:21:23;7.90;;;7.20;;
16792;SDS011;8513;42.662;23.350;2024-02-14T08:23:52;12.03;;;7.67;;
16792;SDS011;8513;42.662;23.350;2024-02-14T08:26:19;9.10;;;7.70;;
16792;SDS011;8513;42.662;23.350;2024-02-14T08:28:46;8.60;;;7.33;;
16792;SDS011;8513;42.662;23.350;2024-02-14T08:31:12;8.27;;;7.47;;
16792;SDS011;8513;42.662;23.350;2024-02-14T08:33:37;9.10;;;7.63;;
16792;SDS011;8513;42.662;23.350;2024-02-14T08:36:03;7.23;;;6.53;;
16792;SDS011;8513;42.662;23.350;2024-02-14T08:38:33;9.57;;;7.00;;
16792;SDS011;8513;42.662;23.350;2024-02-14T08:40:59;10.27;;;7.60;;
16792;SDS011;8513;42.662;23.350;2024-02-14T08:43:25;8.20;;;7.37;;
16792;SDS011;8513;42.662;23.350;2024-02-14T10:07:10;8.37;;;7.53;;
16792;SDS011;8513;42.662;23.350;2024-02-14T10:09:42;7.13;;;6.43;;
16792;SDS011;8513;42.662;23.350;2024-02-14T10:12:08;8.07;;;7.37;;
16792;SDS011;8513;42.662;23.350;2024-02-14T10:14:35;7.67;;;6.97;;
16792;SDS011;8513;42.662;23.350;2024-02-14T10:17:02;7.47;;;6.73;;
16792;SDS011;8513;42.662;23.350;2024-02-14T10:19:30;7.27;;;6.63;;
16792;SDS011;8513;42.662;23.350;2024-02-14T10:21:59;8.27;;;7.47;;
16792;SDS011;8513;42.662;23.350;2024-02-14T10:24:29;8.00;;;7.20;;
16792;SDS011;8513;42.662;23.350;2024-02-14T10:26:55;7.83;;;7.13;;
16792;SDS011;8513;42.662;23.350;2024-02-14T10:29:23;7.73;;;7.03;;
16792;SDS011;8513;42.662;23.350;2024-02-14T10:31:49;7.73;;;6.77;;
16792;SDS011;8513;42.662;23.350;2024-02-14T10:34:15;7.97;;;7.27;;
16792;SDS011;8513;42.662;23.350;2024-02-14T10:36:44;8.50;;;7.60;;
16792;SDS011;8513;42.662;23.350;2024-02-14T10:39:10;9.13;;;8.23;;
16792;SDS011;8513;42.662;23.350;2024-02-14T10:41:36;9.37;;;7.20;;
16792;SDS011;8513;42.662;23.350;2024-02-14T10:44:05;7.60;;;6.80;;
16792;SDS011;8513;42.662;23.350;2024-02-14T10:46:34;9.30;;;6.57;;
16792;SDS011;8513;42.662;23.350;2024-02-14T10:49:03;8.63;;;6.93;;
16792;SDS011;8513;42.662;23.350;2024-02-14T10:51:33;8.20;;;6.60;;
16792;SDS011;8513;42.662;23.350;2024-02-14T10:54:04;9.33;;;7.00;;
16792;SDS011;8513;42.662;23.350;2024-02-14T10:56:34;9.10;;;6.73;;
16792;SDS011;8513;42.662;23.350;2024-02-14T10:59:03;7.73;;;6.47;;
16792;SDS011;8513;42.662;23.350;2024-02-14T11:01:31;9.23;;;6.87;;
16792;SDS011;8513;42.662;23.350;2024-02-14T11:04:01;7.37;;;6.67;;
16792;SDS011;8513;42.662;23.350;2024-02-14T11:06:27;7.63;;;6.67;;
16792;SDS011;8513;42.662;23.350;2024-02-14T11:09:03;7.17;;;6.47;;
16792;SDS011;8513;42.662;23.350;2024-02-14T11:11:35;6.20;;;5.70;;
16792;SDS011;8513;42.662;23.350;2024-02-14T11:14:02;7.40;;;6.17;;
16792;SDS011;8513;42.662;23.350;2024-02-14T11:16:30;7.00;;;6.10;;
16792;SDS011;8513;42.662;23.350;2024-02-14T11:19:07;7.53;;;6.83;;
16792;SDS011;8513;42.662;23.350;2024-02-14T11:21:40;8.77;;;6.90;;
16792;SDS011;8513;42.662;23.350;2024-02-14T11:24:09;7.73;;;6.80;;
16792;SDS011;8513;42.662;23.350;2024-02-14T11:26:48;7.97;;;6.87;;
16792;SDS011;8513;42.662;23.350;2024-02-14T11:29:16;8.77;;;7.10;;
16792;SDS011;8513;42.662;23.350;2024-02-14T11:31:45;8.00;;;6.43;;
16792;SDS011;8513;42.662;23.350;2024-02-14T11:34:13;8.50;;;6.37;;
16792;SDS011;8513;42.662;23.350;2024-02-14T11:36:39;7.23;;;6.40;;
16792;SDS011;8513;42.662;23.350;2024-02-14T11:39:07;7.10;;;6.40;;
16792;SDS011;8513;42.662;23.350;2024-02-14T11:41:33;8.77;;;6.97;;
16792;SDS011;8513;42.662;23.350;2024-02-14T11:44:03;7.57;;;6.77;;
16792;SDS011;8513;42.662;23.350;2024-02-14T11:46:34;9.13;;;7.07;;
16792;SDS011;8513;42.662;23.350;2024-02-14T11:49:01;9.40;;;6.70;;
16792;SDS011;8513;42.662;23.350;2024-02-14T11:51:28;7.90;;;7.10;;
16792;SDS011;8513;42.662;23.350;2024-02-14T11:53:55;8.03;;;6.30;;
16792;SDS011;8513;42.662;23.350;2024-02-14T11:56:33;11.10;;;7.87;;
16792;SDS011;8513;42.662;23.350;2024-02-14T11:59:02;7.97;;;6.93;;
16792;SDS011;8513;42.662;23.350;2024-02-14T12:01:29;7.30;;;6.00;;
16792;SDS011;8513;42.662;23.350;2024-02-14T12:03:59;11.80;;;6.67;;
16792;SDS011;8513;42.662;23.350;2024-02-14T12:06:27;7.57;;;6.20;;
16792;SDS011;8513;42.662;23.350;2024-02-14T12:08:54;8.07;;;6.13;;
16792;SDS011;8513;42.662;23.350;2024-02-14T12:11:20;7.27;;;6.57;;
16792;SDS011;8513;42.662;23.350;2024-02-14T12:13:49;7.23;;;6.30;;
16792;SDS011;8513;42.662;23.350;2024-02-14T12:16:15;6.67;;;5.87;;
16792;SDS011;8513;42.662;23.350;2024-02-14T12:18:41;8.33;;;6.67;;
16792;SDS011;8513;42.662;23.350;2024-02-14T12:21:06;7.60;;;6.63;;
16792;SDS011;8513;42.662;23.350;2024-02-14T12:23:32;7.37;;;6.23;;
16792;SDS011;8513;42.662;23.350;2024-02-14T12:26:02;8.70;;;5.77;;
16792;SDS011;8513;42.662;23.350;2024-02-14T12:28:29;6.70;;;6.00;;
16792;SDS011;8513;42.662;23.350;2024-02-14T12:30:58;10.17;;;6.73;;
16792;SDS011;8513;42.662;23.350;2024-02-14T12:33:24;6.50;;;5.90;;
16792;SDS011;8513;42.662;23.350;2024-02-14T12:35:50;5.90;;;5.30;;
16792;SDS011;8513;42.662;23.350;2024-02-14T12:38:18;8.40;;;5.90;;
16792;SDS011;8513;42.662;23.350;2024-02-14T12:40:45;7.10;;;6.20;;
16792;SDS011;8513;42.662;23.350;2024-02-14T12:43:11;7.73;;;6.60;;
16792;SDS011;8513;42.662;23.350;2024-02-14T12:45:38;7.27;;;6.37;;
16792;SDS011;8513;42.662;23.350;2024-02-14T12:48:04;7.17;;;5.83;;
16792;SDS011;8513;42.662;23.350;2024-02-14T12:50:31;9.67;;;6.53;;
16792;SDS011;8513;42.662;23.350;2024-02-14T12:53:01;7.13;;;5.80;;
16792;SDS011;8513;42.662;23.350;2024-02-14T12:55:27;6.97;;;6.00;;
16792;SDS011;8513;42.662;23.350;2024-02-14T12:57:54;7.07;;;5.83;;
16792;SDS011;8513;42.662;23.350;2024-02-14T13:00:20;7.03;;;5.90;;
16792;SDS011;8513;42.662;23.350;2024-02-14T13:02:47;6.90;;;6.10;;
16792;SDS011;8513;42.662;23.350;2024-02-14T13:05:13;9.37;;;6.30;;
16792;SDS011;8513;42.662;23.350;2024-02-14T13:07:39;6.63;;;5.93;;
16792;SDS011;8513;42.662;23.350;2024-02-14T13:10:04;8.03;;;6.20;;
16792;SDS011;8513;42.662;23.350;2024-02-14T13:12:30;7.37;;;5.30;;
16792;SDS011;8513;42.662;23.350;2024-02-14T13:14:55;6.80;;;6.20;;
16792;SDS011;8513;42.662;23.350;2024-02-14T13:17:21;6.67;;;5.97;;
16792;SDS011;8513;42.662;23.350;2024-02-14T13:19:48;7.83;;;5.97;;
16792;SDS011;8513;42.662;23.350;2024-02-14T13:22:14;7.00;;;6.30;;
16792;SDS011;8513;42.662;23.350;2024-02-14T13:24:40;7.73;;;6.43;;
16792;SDS011;8513;42.662;23.350;2024-02-14T13:27:05;10.90;;;6.30;;
16792;SDS011;8513;42.662;23.350;2024-02-14T13:29:31;8.80;;;5.60;;
16792;SDS011;8513;42.662;23.350;2024-02-14T13:31:56;6.17;;;4.93;;
16792;SDS011;8513;42.662;23.350;2024-02-14T13:34:22;7.57;;;6.00;;
16792;SDS011;8513;42.662;23.350;2024-02-14T13:36:47;7.90;;;6.37;;
16792;SDS011;8513;42.662;23.350;2024-02-14T13:39:13;7.63;;;6.53;;
16792;SDS011;8513;42.662;23.350;2024-02-14T13:41:39;7.43;;;6.17;;
16792;SDS011;8513;42.662;23.350;2024-02-14T13:44:08;6.70;;;5.90;;
16792;SDS011;8513;42.662;23.350;2024-02-14T13:46:33;12.63;;;10.80;;
16792;SDS011;8513;42.662;23.350;2024-02-14T13:48:59;8.83;;;7.93;;
16792;SDS011;8513;42.662;23.350;2024-02-14T13:51:25;11.97;;;7.13;;
16792;SDS011;8513;42.662;23.350;2024-02-14T13:53:52;9.77;;;7.40;;
16792;SDS011;8513;42.662;23.350;2024-02-14T13:56:17;8.50;;;7.27;;
16792;SDS011;8513;42.662;23.350;2024-02-14T13:58:46;7.20;;;6.40;;
16792;SDS011;8513;42.662;23.350;2024-02-14T14:01:12;16.00;;;8.83;;
16792;SDS011;8513;42.662;23.350;2024-02-14T14:03:37;8.37;;;7.40;;
16792;SDS011;8513;42.662;23.350;2024-02-14T14:06:03;8.27;;;6.87;;
16792;SDS011;8513;42.662;23.350;2024-02-14T14:08:30;8.53;;;6.40;;
16792;SDS011;8513;42.662;23.350;2024-02-14T14:10:56;7.90;;;5.80;;
16792;SDS011;8513;42.662;23.350;2024-02-14T14:13:22;6.00;;;5.40;;
16792;SDS011;8513;42.662;23.350;2024-02-14T14:15:47;8.07;;;6.53;;
16792;SDS011;8513;42.662;23.350;2024-02-14T14:18:12;7.60;;;6.43;;
16792;SDS011;8513;42.662;23.350;2024-02-14T14:20:38;8.67;;;5.87;;
16792;SDS011;8513;42.662;23.350;2024-02-14T14:23:03;8.83;;;5.33;;
16792;SDS011;8513;42.662;23.350;2024-02-14T14:25:29;9.57;;;6.30;;
16792;SDS011;8513;42.662;23.350;2024-02-14T14:27:57;8.37;;;5.43;;
16792;SDS011;8513;42.662;23.350;2024-02-14T14:30:23;6.63;;;5.93;;
16792;SDS011;8513;42.662;23.350;2024-02-14T14:32:49;7.47;;;6.00;;
16792;SDS011;8513;42.662;23.350;2024-02-14T14:35:14;7.20;;;6.37;;
16792;SDS011;8513;42.662;23.350;2024-02-14T14:37:40;7.53;;;5.97;;
16792;SDS011;8513;42.662;23.350;2024-02-14T14:40:05;6.83;;;5.77;;
16792;SDS011;8513;42.662;23.350;2024-02-14T14:42:33;6.43;;;4.90;;
16792;SDS011;8513;42.662;23.350;2024-02-14T14:44:58;9.43;;;5.80;;
16792;SDS011;8513;42.662;23.350;2024-02-14T14:47:24;8.00;;;5.80;;
16792;SDS011;8513;42.662;23.350;2024-02-14T14:49:49;10.77;;;6.13;;
16792;SDS011;8513;42.662;23.350;2024-02-14T14:52:17;8.20;;;5.97;;
16792;SDS011;8513;42.662;23.350;2024-02-14T14:54:48;6.30;;;5.57;;
16792;SDS011;8513;42.662;23.350;2024-02-14T14:57:14;6.37;;;5.73;;
16792;SDS011;8513;42.662;23.350;2024-02-14T14:59:43;7.53;;;5.70;;
16792;SDS011;8513;42.662;23.350;2024-02-14T15:02:08;6.97;;;5.47;;
16792;SDS011;8513;42.662;23.350;2024-02-14T15:04:34;10.80;;;6.23;;
16792;SDS011;8513;42.662;23.350;2024-02-14T15:07:01;6.87;;;5.80;;
16792;SDS011;8513;42.662;23.350;2024-02-14T15:09:27;8.37;;;6.30;;
16792;SDS011;8513;42.662;23.350;2024-02-14T15:11:53;7.70;;;6.97;;
16792;SDS011;8513;42.662;23.350;2024-02-14T15:14:18;13.73;;;10.23;;
16792;SDS011;8513;42.662;23.350;2024-02-14T15:16:44;10.77;;;8.43;;
16792;SDS011;8513;42.662;23.350;2024-02-14T15:19:09;8.60;;;5.43;;
16792;SDS011;8513;42.662;23.350;2024-02-14T15:21:34;7.40;;;6.40;;
16792;SDS011;8513;42.662;23.350;2024-02-14T15:24:00;7.90;;;6.20;;
16792;SDS011;8513;42.662;23.350;2024-02-14T15:26:25;8.03;;;6.07;;
16792;SDS011;8513;42.662;23.350;2024-02-14T15:28:51;7.83;;;5.40;;
16792;SDS011;8513;42.662;23.350;2024-02-14T15:31:37;8.50;;;5.60;;
16792;SDS011;8513;42.662;23.350;2024-02-14T15:34:20;7.43;;;5.77;;
16792;SDS011;8513;42.662;23.350;2024-02-14T15:36:46;11.97;;;6.00;;
16792;SDS011;8513;42.662;23.350;2024-02-14T15:39:11;7.40;;;5.90;;
16792;SDS011;8513;42.662;23.350;2024-02-14T15:41:36;5.70;;;5.10;;
16792;SDS011;8513;42.662;23.350;2024-02-14T15:44:02;8.27;;;5.37;;
16792;SDS011;8513;42.662;23.350;2024-02-14T15:46:27;7.17;;;6.17;;
16792;SDS011;8513;42.662;23.350;2024-02-14T15:48:52;9.47;;;6.57;;
16792;SDS011;8513;42.662;23.350;2024-02-14T15:51:19;8.20;;;6.17;;
16792;SDS011;8513;42.662;23.350;2024-02-14T15:53:48;8.97;;;6.53;;
16792;SDS011;8513;42.662;23.350;2024-02-14T15:56:13;7.00;;;5.70;;
16792;SDS011;8513;42.662;23.350;2024-02-14T15:58:39;7.77;;;6.17;;
16792;SDS011;8513;42.662;23.350;2024-02-14T16:01:04;12.57;;;6.97;;